CheckWX is a tool to help pilots better visualize weather data.  It is not intended as a substitute for an official pre-flight weather briefing.

12:00:32 UTC

KEGI METAR
Duke Field Airport
Crestview, Florida, USA
Current

43 mins ago

KEGI 161118Z AUTO 28007KT 10SM BKN005 BKN150 22/22 A2987 RMK AO2 CIG 005V150 BKN005 V FEW SLP114 $
Observed
Oct-16 @ 11:18 UTC
Wind
  • 280° at 7 KTS
Visibility
10 SM
Flight Rules
IFR
Cloud Levels
  • Broken at 500' AGL
  • Broken at 15,000' AGL
Temperature
22°C / 72°F
Dewpoint
22°C / 72°F
Humidity
100%
Altimeter
29.87" Hg
Pressure
1011.52 hPa
Previous

55 mins ago

KEGI 161106Z AUTO 28006KT 10SM FEW005 BKN150 22/22 A2987 RMK AO2 SLP114 $
Observed
Oct-16 @ 11:06 UTC
Wind
  • 280° at 6 KTS
Visibility
10 SM
Flight Rules
VFR
Cloud Levels
  • Few at 500' AGL
  • Broken at 15,000' AGL
Temperature
22°C / 72°F
Dewpoint
22°C / 72°F
Humidity
100%
Altimeter
29.87" Hg
Pressure
1011.52 hPa
Previous

1 hour ago

KEGI 161056Z AUTO 31004KT 10SM BKN150 22/22 A2986 RMK AO2 SLP111 T02180218 $
Observed
Oct-16 @ 10:56 UTC
Wind
  • 310° at 4 KTS
Visibility
10 SM
Flight Rules
VFR
Cloud Levels
  • Broken at 15,000' AGL
Temperature
22°C / 72°F
Dewpoint
22°C / 72°F
Humidity
100%
Altimeter
29.86" Hg
Pressure
1011.22 hPa